createdAt,value
2023-04-17T00:00:31.112Z,10.57
2023-04-17T00:03:22.574Z,10.62
2023-04-17T00:05:56.757Z,10.66
2023-04-17T00:08:28.558Z,10.53
2023-04-17T00:11:07.998Z,10.48
2023-04-17T00:13:40.709Z,10.51
2023-04-17T00:16:13.816Z,10.45
2023-04-17T00:18:45.710Z,10.45
2023-04-17T00:21:17.876Z,10.49
2023-04-17T00:23:49.620Z,10.56
2023-04-17T00:26:21.478Z,10.42
2023-04-17T00:28:53.922Z,10.35
2023-04-17T00:31:26.173Z,10.31
2023-04-17T00:33:59.049Z,10.26
2023-04-17T00:36:32.632Z,10.32
2023-04-17T00:39:04.363Z,10.33
2023-04-17T00:41:36.160Z,10.33
2023-04-17T00:44:08.811Z,10.29
2023-04-17T00:46:41.575Z,10.29
2023-04-17T00:49:14.075Z,10.15
2023-04-17T00:51:47.062Z,10.18
2023-04-17T00:54:20.553Z,10.16
2023-04-17T00:56:56.518Z,10.19
2023-04-17T00:59:29.411Z,10.04
2023-04-17T01:02:02.327Z,9.93
2023-04-17T01:04:34.756Z,9.90
2023-04-17T01:07:07.357Z,10.06
2023-04-17T01:09:39.613Z,10.12
2023-04-17T01:12:22.198Z,10.18
2023-04-17T01:14:55.194Z,10.14
2023-04-17T01:17:27.673Z,10.03
2023-04-17T01:20:00.297Z,9.97
2023-04-17T01:22:30.695Z,10.03
2023-04-17T01:25:02.805Z,10.07
2023-04-17T01:27:39.807Z,10.12
2023-04-17T01:30:14.844Z,10.07
2023-04-17T01:32:54.411Z,9.95
2023-04-17T01:35:26.748Z,9.94
2023-04-17T01:37:57.961Z,10.04
2023-04-17T01:40:30.546Z,10.10
2023-04-17T01:43:03.102Z,9.89
2023-04-17T01:45:34.933Z,9.82
2023-04-17T01:48:07.643Z,9.77
2023-04-17T01:50:39.417Z,9.85
2023-04-17T01:53:11.111Z,9.78
2023-04-17T01:55:42.783Z,9.73
2023-04-17T01:58:14.532Z,9.66
2023-04-17T02:00:48.220Z,9.68
2023-04-17T02:03:20.393Z,9.66
2023-04-17T02:05:53.252Z,9.82
2023-04-17T02:08:25.082Z,9.70
2023-04-17T02:10:59.370Z,9.72
2023-04-17T02:13:31.303Z,9.67
2023-04-17T02:16:03.119Z,9.58
2023-04-17T02:18:34.872Z,9.52
2023-04-17T02:21:06.800Z,9.52
2023-04-17T02:23:40.531Z,9.55
2023-04-17T02:26:12.496Z,9.49
2023-04-17T02:28:46.134Z,9.61
2023-04-17T02:31:18.147Z,9.76
2023-04-17T02:33:50.710Z,9.85
2023-04-17T02:36:22.839Z,9.87
2023-04-17T02:38:54.872Z,9.74
2023-04-17T02:41:26.600Z,9.74
2023-04-17T02:43:58.560Z,9.74
2023-04-17T02:46:30.661Z,9.67
2023-04-17T02:49:02.538Z,9.69
2023-04-17T02:51:36.129Z,9.70
2023-04-17T02:54:08.466Z,9.68
2023-04-17T02:56:40.333Z,9.65
2023-04-17T02:59:13.865Z,9.51
2023-04-17T03:01:46.628Z,9.53
2023-04-17T03:04:18.743Z,9.47
2023-04-17T03:06:51.501Z,9.55
2023-04-17T03:09:23.773Z,9.62
2023-04-17T03:11:56.692Z,9.61
2023-04-17T03:14:28.865Z,9.55
2023-04-17T03:17:01.011Z,9.53
2023-04-17T03:19:33.046Z,9.54
2023-04-17T03:22:05.779Z,9.52
2023-04-17T03:24:36.276Z,9.51
2023-04-17T03:27:08.272Z,9.57
2023-04-17T03:29:43.210Z,9.60
2023-04-17T03:32:15.157Z,9.61
2023-04-17T03:34:47.387Z,9.42
2023-04-17T03:37:19.413Z,9.37
2023-04-17T03:39:51.382Z,9.32
2023-04-17T03:42:23.208Z,9.39
2023-04-17T03:44:56.125Z,9.44
2023-04-17T03:47:28.060Z,9.42
2023-04-17T03:50:01.444Z,9.31
2023-04-17T03:52:36.500Z,9.24
2023-04-17T03:55:10.555Z,9.22
2023-04-17T03:57:42.752Z,9.13
2023-04-17T04:00:16.239Z,9.21
2023-04-17T04:02:51.710Z,9.22
2023-04-17T04:05:30.217Z,9.18
2023-04-17T04:08:03.075Z,9.14
2023-04-17T04:10:46.892Z,9.08
2023-04-17T04:13:23.041Z,9.11
2023-04-17T04:15:58.991Z,9.18
2023-04-17T04:18:32.926Z,9.15
2023-04-17T04:21:05.824Z,9.21
2023-04-17T04:23:41.233Z,9.27
2023-04-17T04:26:13.578Z,9.26
2023-04-17T04:28:49.858Z,9.26
2023-04-17T04:31:26.488Z,9.24
2023-04-17T04:33:59.023Z,9.25
2023-04-17T04:36:36.166Z,9.11
2023-04-17T04:39:20.650Z,9.21
2023-04-17T04:41:54.121Z,9.22
2023-04-17T04:44:27.450Z,9.14
2023-04-17T04:47:01.684Z,9.23
2023-04-17T04:49:33.899Z,9.23
2023-04-17T04:52:06.671Z,9.25
2023-04-17T04:54:38.770Z,9.18
2023-04-17T04:57:10.688Z,9.17
2023-04-17T04:59:42.420Z,9.13
2023-04-17T05:02:34.669Z,9.15
2023-04-17T05:05:09.975Z,8.98
2023-04-17T05:07:42.264Z,9.05
2023-04-17T05:10:18.047Z,9.04
2023-04-17T05:12:55.396Z,9.01
2023-04-17T05:15:27.896Z,8.99
2023-04-17T05:18:00.432Z,9.00
2023-04-17T05:20:33.229Z,8.95
2023-04-17T05:23:05.900Z,8.91
2023-04-17T05:25:36.332Z,8.92
2023-04-17T05:28:10.647Z,9.03
2023-04-17T05:30:43.433Z,9.13
2023-04-17T05:33:27.561Z,9.11
2023-04-17T05:36:03.107Z,9.20
2023-04-17T05:38:37.228Z,9.27
2023-04-17T05:41:11.723Z,9.28
2023-04-17T05:43:43.879Z,9.29
2023-04-17T05:46:17.581Z,9.27
2023-04-17T05:48:50.466Z,9.24
2023-04-17T05:51:22.781Z,9.31
2023-04-17T05:53:54.780Z,9.32
2023-04-17T05:56:26.522Z,9.29
2023-04-17T05:58:58.578Z,9.23
2023-04-17T06:01:32.589Z,9.29
2023-04-17T06:04:04.687Z,9.36
2023-04-17T06:06:37.442Z,9.38
2023-04-17T06:09:11.244Z,9.30
2023-04-17T06:11:43.650Z,9.36
2023-04-17T06:14:15.882Z,9.27
2023-04-17T06:16:48.305Z,9.34
2023-04-17T06:19:22.493Z,9.31
2023-04-17T06:21:54.546Z,9.18
2023-04-17T06:24:26.671Z,9.25
2023-04-17T06:26:59.981Z,9.19
2023-04-17T06:29:32.088Z,9.24
2023-04-17T06:32:04.039Z,9.21
2023-04-17T06:34:38.176Z,9.19
2023-04-17T06:37:15.634Z,9.16
2023-04-17T06:39:47.829Z,9.23
2023-04-17T06:42:20.528Z,9.34
2023-04-17T06:44:57.214Z,9.42
2023-04-17T06:47:29.266Z,9.47
2023-04-17T06:50:01.524Z,9.42
2023-04-17T06:52:33.475Z,9.42
2023-04-17T06:55:05.844Z,9.47
2023-04-17T06:57:39.237Z,9.55
2023-04-17T07:00:14.041Z,9.53
2023-04-17T07:02:46.436Z,9.49
2023-04-17T07:05:19.033Z,9.50
2023-04-17T07:07:50.890Z,9.42
2023-04-17T07:10:22.803Z,9.44
2023-04-17T07:12:55.169Z,9.43
2023-04-17T07:15:30.445Z,9.53
2023-04-17T07:18:02.468Z,9.48
2023-04-17T07:20:34.504Z,9.46
2023-04-17T07:23:06.383Z,9.48
2023-04-17T07:25:38.469Z,9.57
2023-04-17T07:28:10.859Z,9.58
2023-04-17T07:30:43.287Z,9.59
2023-04-17T07:33:15.228Z,9.66
2023-04-17T07:35:47.222Z,9.66
2023-04-17T07:38:19.122Z,9.68
2023-04-17T07:40:50.921Z,9.67
2023-04-17T07:43:22.808Z,9.52
2023-04-17T07:45:55.005Z,9.60
2023-04-17T07:48:27.304Z,9.65
2023-04-17T07:51:02.139Z,9.65
2023-04-17T07:53:36.004Z,9.61
2023-04-17T07:56:08.335Z,9.61
2023-04-17T07:58:40.148Z,9.58
2023-04-17T08:01:12.309Z,9.70
2023-04-17T08:03:45.423Z,9.76
2023-04-17T08:06:17.507Z,9.73
2023-04-17T08:08:49.730Z,9.65
2023-04-17T08:11:22.306Z,9.82
2023-04-17T08:13:54.960Z,9.88
2023-04-17T08:16:26.725Z,9.81
2023-04-17T08:18:58.591Z,9.87
2023-04-17T08:21:31.064Z,9.80
2023-04-17T08:24:05.928Z,9.85
2023-04-17T08:26:38.004Z,9.98
2023-04-17T08:29:09.969Z,10.09
2023-04-17T08:31:41.971Z,10.19
2023-04-17T08:34:15.518Z,10.30
2023-04-17T08:36:47.980Z,10.30
2023-04-17T08:39:19.889Z,10.31
2023-04-17T08:42:00.280Z,10.31
2023-04-17T08:44:33.185Z,10.18
2023-04-17T08:47:04.548Z,10.28
2023-04-17T08:49:37.194Z,10.39
2023-04-17T08:52:09.793Z,10.38
2023-04-17T08:54:40.320Z,10.40
2023-04-17T08:57:12.770Z,10.47
2023-04-17T08:59:47.048Z,10.46
2023-04-17T09:02:19.051Z,10.48
2023-04-17T09:04:53.832Z,10.44
2023-04-17T09:07:31.724Z,10.54
2023-04-17T09:10:03.514Z,10.53
2023-04-17T09:12:41.702Z,10.53
2023-04-17T09:15:19.886Z,10.59
2023-04-17T09:17:51.645Z,10.61
2023-04-17T09:20:23.479Z,10.72
2023-04-17T09:23:02.948Z,10.69
2023-04-17T09:25:34.852Z,10.75
2023-04-17T09:28:14.699Z,10.82
2023-04-17T09:30:46.585Z,10.76
2023-04-17T09:33:20.725Z,10.89
2023-04-17T09:35:52.645Z,10.92
2023-04-17T09:38:39.970Z,10.92
2023-04-17T09:41:25.468Z,10.98
2023-04-17T09:44:01.791Z,11.13
2023-04-17T09:46:46.111Z,11.20
2023-04-17T09:49:21.037Z,11.20
2023-04-17T09:51:53.675Z,11.17
2023-04-17T09:54:26.368Z,11.32
2023-04-17T09:56:58.648Z,11.40
2023-04-17T09:59:31.445Z,11.51
2023-04-17T10:02:04.957Z,11.55
2023-04-17T10:04:37.765Z,11.61
2023-04-17T10:07:10.210Z,11.63
2023-04-17T10:09:45.633Z,11.57
2023-04-17T10:12:19.478Z,11.68
2023-04-17T10:14:53.006Z,11.75
2023-04-17T10:17:31.611Z,11.70
2023-04-17T10:20:30.881Z,11.60
2023-04-17T10:23:22.849Z,11.59
2023-04-17T10:26:43.235Z,11.54
2023-04-17T10:29:15.504Z,11.49
2023-04-17T10:32:29.073Z,11.44
2023-04-17T10:35:03.350Z,11.57
2023-04-17T10:38:05.517Z,11.67
2023-04-17T10:40:39.161Z,11.74
2023-04-17T10:43:14.806Z,11.74
2023-04-17T10:46:03.066Z,11.70
2023-04-17T10:48:38.069Z,11.65
2023-04-17T10:51:43.910Z,11.79
2023-04-17T10:54:16.311Z,11.96
2023-04-17T10:56:48.848Z,12.01
2023-04-17T10:59:20.822Z,12.03
2023-04-17T11:02:04.662Z,11.96
2023-04-17T11:04:37.144Z,12.09
2023-04-17T11:07:08.991Z,12.22
2023-04-17T11:09:42.558Z,12.31
2023-04-17T11:12:14.655Z,12.40
2023-04-17T11:14:46.630Z,12.50
2023-04-17T11:17:18.492Z,12.72
2023-04-17T11:19:50.699Z,12.83
2023-04-17T11:22:23.657Z,12.99
2023-04-17T11:24:55.442Z,13.05
2023-04-17T11:27:28.560Z,13.06
2023-04-17T11:30:01.143Z,13.02
2023-04-17T11:32:38.202Z,12.99
2023-04-17T11:35:11.706Z,12.96
2023-04-17T11:38:06.880Z,12.95
2023-04-17T11:40:43.243Z,12.88
2023-04-17T11:43:15.719Z,12.86
2023-04-17T11:45:50.937Z,12.83
2023-04-17T11:48:27.615Z,12.78
2023-04-17T11:51:02.153Z,12.77
2023-04-17T11:53:37.376Z,12.84
2023-04-17T11:56:17.127Z,12.95
2023-04-17T11:58:51.539Z,12.84
2023-04-17T12:01:25.342Z,12.82
2023-04-17T12:03:58.695Z,12.91
2023-04-17T12:06:39.852Z,12.85
2023-04-17T12:09:24.037Z,12.83
2023-04-17T12:11:55.862Z,12.88
2023-04-17T12:14:27.686Z,12.89
2023-04-17T12:17:01.164Z,12.86
2023-04-17T12:19:33.684Z,13.02
2023-04-17T12:22:06.171Z,13.09
2023-04-17T12:24:38.164Z,13.19
2023-04-17T12:27:10.381Z,13.08
2023-04-17T12:29:44.518Z,13.12
2023-04-17T12:32:17.769Z,13.05
2023-04-17T12:34:49.765Z,13.02
2023-04-17T12:37:22.526Z,13.00
2023-04-17T12:39:52.746Z,13.09
2023-04-17T12:42:24.852Z,13.13
2023-04-17T12:44:57.042Z,13.15
2023-04-17T12:47:29.576Z,13.07
2023-04-17T12:50:00.371Z,13.02
2023-04-17T12:52:33.038Z,12.97
2023-04-17T12:55:05.126Z,12.96
2023-04-17T12:57:38.409Z,13.05
2023-04-17T13:00:12.713Z,13.10
2023-04-17T13:02:44.705Z,13.12
2023-04-17T13:05:16.998Z,13.22
2023-04-17T13:07:49.045Z,13.26
2023-04-17T13:10:21.689Z,13.36
2023-04-17T13:12:53.783Z,13.48
2023-04-17T13:15:24.730Z,13.42
2023-04-17T13:17:57.091Z,13.43
2023-04-17T13:20:29.393Z,13.63
2023-04-17T13:23:01.571Z,13.88
2023-04-17T13:25:34.789Z,13.99
2023-04-17T13:28:06.803Z,14.08
2023-04-17T13:30:39.787Z,14.19
2023-04-17T13:33:11.863Z,14.20
2023-04-17T13:35:43.736Z,14.13
2023-04-17T13:38:16.267Z,13.99
2023-04-17T13:40:48.250Z,13.95
2023-04-17T13:43:20.086Z,13.81
2023-04-17T13:45:55.401Z,13.75
2023-04-17T13:48:27.785Z,13.73
2023-04-17T13:50:59.676Z,13.87
2023-04-17T13:53:31.684Z,14.04
2023-04-17T13:56:03.791Z,14.07
2023-04-17T13:58:36.039Z,14.14
2023-04-17T14:01:08.925Z,14.22
2023-04-17T14:03:44.593Z,14.34
2023-04-17T14:06:18.966Z,14.49
2023-04-17T14:08:51.054Z,14.38
2023-04-17T14:11:23.016Z,14.37
2023-04-17T14:13:54.904Z,14.38
2023-04-17T14:16:27.613Z,14.25
2023-04-17T14:19:12.284Z,14.18
2023-04-17T14:21:45.981Z,14.02
2023-04-17T14:24:18.281Z,14.04
2023-04-17T14:26:50.427Z,14.10
2023-04-17T14:29:22.503Z,14.23
2023-04-17T14:31:55.915Z,14.24
2023-04-17T14:34:28.747Z,14.19
2023-04-17T14:37:02.625Z,14.09
2023-04-17T14:39:34.843Z,14.14
2023-04-17T14:42:07.054Z,14.38
2023-04-17T14:44:39.792Z,14.46
2023-04-17T14:47:13.087Z,14.58
2023-04-17T14:49:48.778Z,14.57
2023-04-17T14:52:24.113Z,14.42
2023-04-17T14:54:57.558Z,14.30
2023-04-17T14:57:30.589Z,14.29
2023-04-17T15:00:03.781Z,14.29
2023-04-17T15:02:38.765Z,14.23
2023-04-17T15:05:12.648Z,14.24
2023-04-17T15:07:47.303Z,14.06
2023-04-17T15:10:19.335Z,14.07
2023-04-17T15:12:51.237Z,13.98
2023-04-17T15:15:23.229Z,13.93
2023-04-17T15:17:55.714Z,13.97
2023-04-17T15:20:28.968Z,13.96
2023-04-17T15:23:01.251Z,13.95
2023-04-17T15:25:34.357Z,13.83
2023-04-17T15:28:06.297Z,13.75
2023-04-17T15:30:38.269Z,13.56
2023-04-17T15:33:10.620Z,13.54
2023-04-17T15:35:42.537Z,13.60
2023-04-17T15:38:14.351Z,13.68
2023-04-17T15:40:47.477Z,13.70
2023-04-17T15:43:21.998Z,13.68
2023-04-17T15:45:55.525Z,13.71
2023-04-17T15:48:27.579Z,13.71
2023-04-17T15:51:00.845Z,13.61
2023-04-17T15:53:34.449Z,13.56
2023-04-17T15:56:07.536Z,13.51
2023-04-17T15:58:39.390Z,13.39
2023-04-17T16:01:11.791Z,13.33
2023-04-17T16:03:44.036Z,13.28
2023-04-17T16:06:16.781Z,13.29
2023-04-17T16:08:49.003Z,13.35
2023-04-17T16:11:21.302Z,13.57
2023-04-17T16:13:53.436Z,13.83
2023-04-17T16:16:25.703Z,13.81
2023-04-17T16:18:57.832Z,13.72
2023-04-17T16:21:31.251Z,13.53
2023-04-17T16:24:04.933Z,13.36
2023-04-17T16:26:37.947Z,13.33
2023-04-17T16:29:10.372Z,13.39
2023-04-17T16:31:42.944Z,13.47
2023-04-17T16:34:15.384Z,13.44
2023-04-17T16:36:47.447Z,13.41
2023-04-17T16:39:19.734Z,13.32
2023-04-17T16:41:52.985Z,13.25
2023-04-17T16:44:26.032Z,13.17
2023-04-17T16:47:12.613Z,12.97
2023-04-17T16:49:45.769Z,12.84
2023-04-17T16:52:18.274Z,12.89
2023-04-17T16:54:50.805Z,12.88
2023-04-17T16:57:22.833Z,12.76
2023-04-17T16:59:54.977Z,12.72
2023-04-17T17:02:27.239Z,12.73
2023-04-17T17:04:59.454Z,12.66
2023-04-17T17:07:31.667Z,12.50
2023-04-17T17:10:03.929Z,12.43
2023-04-17T17:12:36.333Z,12.40
2023-04-17T17:15:10.795Z,12.31
2023-04-17T17:17:44.400Z,12.22
2023-04-17T17:20:17.506Z,12.18
2023-04-17T17:22:49.965Z,12.10
2023-04-17T17:25:22.936Z,12.06
2023-04-17T17:27:56.337Z,11.93
2023-04-17T17:30:28.995Z,11.96
2023-04-17T17:33:08.691Z,12.02
2023-04-17T17:35:43.207Z,11.89
2023-04-17T17:38:18.978Z,11.85
2023-04-17T17:40:53.375Z,11.81
2023-04-17T17:43:25.584Z,11.76
2023-04-17T17:45:58.324Z,11.78
2023-04-17T17:48:30.846Z,11.69
2023-04-17T17:51:02.972Z,11.73
2023-04-17T17:53:35.332Z,11.72
2023-04-17T17:56:08.201Z,11.60
2023-04-17T17:58:40.278Z,11.55
2023-04-17T18:01:12.359Z,11.56
2023-04-17T18:03:45.485Z,11.44
2023-04-17T18:06:19.760Z,11.47
2023-04-17T18:08:52.845Z,11.48
2023-04-17T18:11:24.803Z,11.44
2023-04-17T18:13:57.078Z,11.41
2023-04-17T18:16:31.635Z,11.42
2023-04-17T18:19:04.961Z,11.30
2023-04-17T18:21:37.466Z,11.21
2023-04-17T18:24:10.871Z,11.11
2023-04-17T18:26:43.681Z,11.12
2023-04-17T18:29:15.878Z,11.09
2023-04-17T18:31:48.002Z,11.05
2023-04-17T18:34:23.108Z,10.94
2023-04-17T18:36:56.268Z,10.89
2023-04-17T18:39:28.484Z,10.91
2023-04-17T18:42:01.752Z,10.93
2023-04-17T18:44:35.239Z,10.93
2023-04-17T18:47:07.685Z,10.91
2023-04-17T18:49:40.255Z,10.86
2023-04-17T18:52:12.140Z,10.83
2023-04-17T18:54:44.313Z,10.86
2023-04-17T18:57:16.785Z,10.80
2023-04-17T18:59:47.733Z,10.80
2023-04-17T19:02:19.929Z,10.77
2023-04-17T19:04:51.719Z,10.70
2023-04-17T19:07:23.912Z,10.66
2023-04-17T19:09:56.892Z,10.50
2023-04-17T19:12:30.507Z,10.44
2023-04-17T19:15:02.436Z,10.47
2023-04-17T19:17:34.538Z,10.56
2023-04-17T19:20:08.210Z,10.59
2023-04-17T19:22:40.593Z,10.55
2023-04-17T19:25:13.378Z,10.48
2023-04-17T19:27:43.611Z,10.43
2023-04-17T19:30:16.880Z,10.31
2023-04-17T19:32:49.154Z,10.34
2023-04-17T19:35:21.512Z,10.39
2023-04-17T19:37:53.790Z,10.38
2023-04-17T19:40:26.238Z,10.33
2023-04-17T19:43:01.246Z,10.29
2023-04-17T19:45:35.820Z,10.26
2023-04-17T19:48:09.077Z,10.22
2023-04-17T19:50:41.285Z,10.25
2023-04-17T19:53:13.165Z,10.17
2023-04-17T19:55:45.348Z,10.06
2023-04-17T19:58:17.889Z,10.10
2023-04-17T20:00:50.247Z,10.09
2023-04-17T20:03:22.365Z,10.10
2023-04-17T20:05:54.994Z,10.04
2023-04-17T20:08:27.406Z,10.07
2023-04-17T20:10:59.268Z,9.92
2023-04-17T20:13:31.311Z,10.01
2023-04-17T20:16:03.094Z,9.91
2023-04-17T20:18:35.168Z,9.89
2023-04-17T20:21:07.484Z,9.83
2023-04-17T20:23:39.698Z,9.85
2023-04-17T20:26:11.782Z,9.85
2023-04-17T20:28:43.748Z,9.83
2023-04-17T20:31:16.004Z,9.90
2023-04-17T20:33:48.008Z,9.83
2023-04-17T20:36:20.225Z,9.85
2023-04-17T20:38:52.727Z,9.91
2023-04-17T20:41:24.747Z,9.81
2023-04-17T20:44:00.936Z,9.75
2023-04-17T20:46:33.021Z,9.71
2023-04-17T20:49:05.061Z,9.76
2023-04-17T20:51:36.909Z,9.82
2023-04-17T20:54:08.764Z,9.92
2023-04-17T20:56:40.926Z,9.86
2023-04-17T20:59:12.762Z,9.84
2023-04-17T21:01:44.895Z,9.83
2023-04-17T21:04:16.933Z,9.85
2023-04-17T21:06:49.944Z,9.84
2023-04-17T21:09:23.356Z,9.84
2023-04-17T21:11:55.360Z,9.85
2023-04-17T21:14:27.984Z,9.81
2023-04-17T21:16:58.588Z,9.83
2023-04-17T21:19:34.849Z,9.77
2023-04-17T21:22:06.669Z,9.83
2023-04-17T21:24:40.957Z,9.88
2023-04-17T21:27:12.843Z,9.87
2023-04-17T21:29:44.634Z,9.83
2023-04-17T21:32:16.421Z,9.78
2023-04-17T21:34:48.161Z,9.77
2023-04-17T21:37:19.930Z,9.77
2023-04-17T21:39:52.096Z,9.74
2023-04-17T21:42:24.061Z,9.71
2023-04-17T21:44:56.249Z,9.59
2023-04-17T21:47:28.006Z,9.66
2023-04-17T21:50:00.510Z,9.63
2023-04-17T21:52:32.328Z,9.54
2023-04-17T21:55:05.624Z,9.56
2023-04-17T21:57:37.486Z,9.62
2023-04-17T22:00:12.620Z,9.59
2023-04-17T22:02:44.812Z,9.59
2023-04-17T22:05:16.954Z,9.48
2023-04-17T22:07:54.996Z,9.53
2023-04-17T22:10:27.499Z,9.39
2023-04-17T22:12:59.751Z,9.37
2023-04-17T22:15:31.864Z,9.34
2023-04-17T22:18:03.693Z,9.39
2023-04-17T22:20:35.463Z,9.37
2023-04-17T22:23:07.862Z,9.37
2023-04-17T22:25:39.546Z,9.43
2023-04-17T22:28:11.383Z,9.43
2023-04-17T22:30:43.394Z,9.43
2023-04-17T22:33:15.541Z,9.44
2023-04-17T22:35:47.387Z,9.44
2023-04-17T22:38:21.101Z,9.41
2023-04-17T22:40:52.964Z,9.34
2023-04-17T22:43:24.749Z,9.30
2023-04-17T22:45:57.343Z,9.29
2023-04-17T22:48:28.360Z,9.31
2023-04-17T22:51:01.096Z,9.36
2023-04-17T22:53:31.450Z,9.27
2023-04-17T22:56:04.912Z,9.18
2023-04-17T22:58:36.807Z,9.18
2023-04-17T23:01:08.805Z,9.15
2023-04-17T23:03:41.184Z,9.09
2023-04-17T23:06:12.941Z,9.10
2023-04-17T23:08:44.828Z,9.09
2023-04-17T23:11:16.719Z,9.11
2023-04-17T23:13:48.555Z,9.12
2023-04-17T23:16:20.858Z,8.99
2023-04-17T23:18:52.683Z,9.05
2023-04-17T23:21:25.310Z,9.09
2023-04-17T23:23:57.769Z,9.09
2023-04-17T23:26:29.915Z,8.99
2023-04-17T23:29:01.692Z,9.10
2023-04-17T23:31:33.599Z,9.19
2023-04-17T23:34:05.473Z,9.21
2023-04-17T23:36:37.410Z,9.10
2023-04-17T23:39:09.389Z,9.05
2023-04-17T23:41:42.810Z,9.08
2023-04-17T23:44:14.902Z,9.09
2023-04-17T23:46:47.019Z,9.13
2023-04-17T23:49:18.849Z,9.16
2023-04-17T23:51:50.571Z,9.15
2023-04-17T23:54:23.534Z,9.13
2023-04-17T23:56:55.694Z,9.17
2023-04-17T23:59:27.703Z,9.23
